sensor_id;sensor_type;location;lat;lon;timestamp;temperature;humidity
65231;DHT22;51813;40.666;16.602;2023-05-06T00:00:01;18.80;56.60
65231;DHT22;51813;40.666;16.602;2023-05-06T00:02:26;18.80;56.60
65231;DHT22;51813;40.666;16.602;2023-05-06T00:04:54;18.80;56.50
65231;DHT22;51813;40.666;16.602;2023-05-06T00:07:20;18.80;56.40
65231;DHT22;51813;40.666;16.602;2023-05-06T00:09:46;18.80;56.50
65231;DHT22;51813;40.666;16.602;2023-05-06T00:12:12;18.80;55.90
65231;DHT22;51813;40.666;16.602;2023-05-06T00:14:38;18.80;56.50
65231;DHT22;51813;40.666;16.602;2023-05-06T00:17:04;18.80;56.40
65231;DHT22;51813;40.666;16.602;2023-05-06T00:19:30;18.80;56.20
65231;DHT22;51813;40.666;16.602;2023-05-06T00:21:55;18.80;56.20
65231;DHT22;51813;40.666;16.602;2023-05-06T00:24:21;18.80;56.30
65231;DHT22;51813;40.666;16.602;2023-05-06T00:26:47;18.80;56.30
65231;DHT22;51813;40.666;16.602;2023-05-06T00:29:13;18.80;56.40
65231;DHT22;51813;40.666;16.602;2023-05-06T00:31:39;18.80;55.90
65231;DHT22;51813;40.666;16.602;2023-05-06T00:34:05;18.80;56.40
65231;DHT22;51813;40.666;16.602;2023-05-06T00:36:30;18.80;55.70
65231;DHT22;51813;40.666;16.602;2023-05-06T00:38:56;18.80;56.40
65231;DHT22;51813;40.666;16.602;2023-05-06T00:41:22;18.80;56.40
65231;DHT22;51813;40.666;16.602;2023-05-06T00:43:48;18.80;56.40
65231;DHT22;51813;40.666;16.602;2023-05-06T00:46:15;18.80;56.30
65231;DHT22;51813;40.666;16.602;2023-05-06T00:48:42;18.80;56.30
65231;DHT22;51813;40.666;16.602;2023-05-06T00:51:08;18.80;56.30
65231;DHT22;51813;40.666;16.602;2023-05-06T00:53:34;18.80;56.40
65231;DHT22;51813;40.666;16.602;2023-05-06T00:56:00;18.80;56.40
65231;DHT22;51813;40.666;16.602;2023-05-06T00:58:26;18.80;56.40
65231;DHT22;51813;40.666;16.602;2023-05-06T01:00:52;18.80;56.30
65231;DHT22;51813;40.666;16.602;2023-05-06T01:03:18;18.80;56.40
65231;DHT22;51813;40.666;16.602;2023-05-06T01:06:27;18.70;56.40
65231;DHT22;51813;40.666;16.602;2023-05-06T01:17:09;18.70;56.30
65231;DHT22;51813;40.666;16.602;2023-05-06T01:19:40;18.70;56.40
65231;DHT22;51813;40.666;16.602;2023-05-06T01:22:11;18.70;56.30
65231;DHT22;51813;40.666;16.602;2023-05-06T01:24:41;18.70;56.40
65231;DHT22;51813;40.666;16.602;2023-05-06T01:27:08;18.70;56.40
65231;DHT22;51813;40.666;16.602;2023-05-06T01:29:36;18.60;56.00
65231;DHT22;51813;40.666;16.602;2023-05-06T01:32:35;18.60;56.80
65231;DHT22;51813;40.666;16.602;2023-05-06T01:37:58;18.70;56.40
65231;DHT22;51813;40.666;16.602;2023-05-06T01:40:27;18.70;56.30
65231;DHT22;51813;40.666;16.602;2023-05-06T01:42:54;18.70;56.30
65231;DHT22;51813;40.666;16.602;2023-05-06T01:45:23;18.70;56.80
65231;DHT22;51813;40.666;16.602;2023-05-06T01:47:50;18.70;56.40
65231;DHT22;51813;40.666;16.602;2023-05-06T01:50:17;18.70;56.50
65231;DHT22;51813;40.666;16.602;2023-05-06T01:52:42;18.70;56.40
65231;DHT22;51813;40.666;16.602;2023-05-06T01:55:08;18.70;56.60
65231;DHT22;51813;40.666;16.602;2023-05-06T01:57:34;18.70;56.40
65231;DHT22;51813;40.666;16.602;2023-05-06T02:00:00;18.70;56.40
65231;DHT22;51813;40.666;16.602;2023-05-06T02:02:26;18.70;56.30
65231;DHT22;51813;40.666;16.602;2023-05-06T02:04:52;18.60;56.10
65231;DHT22;51813;40.666;16.602;2023-05-06T02:07:17;18.60;56.30
65231;DHT22;51813;40.666;16.602;2023-05-06T02:09:43;18.60;56.20
65231;DHT22;51813;40.666;16.602;2023-05-06T02:12:09;18.60;56.20
65231;DHT22;51813;40.666;16.602;2023-05-06T02:14:35;18.60;56.20
65231;DHT22;51813;40.666;16.602;2023-05-06T02:17:03;18.60;56.10
65231;DHT22;51813;40.666;16.602;2023-05-06T02:19:29;18.60;56.10
65231;DHT22;51813;40.666;16.602;2023-05-06T02:21:55;18.60;56.00
65231;DHT22;51813;40.666;16.602;2023-05-06T02:24:22;18.60;56.10
65231;DHT22;51813;40.666;16.602;2023-05-06T02:26:47;18.60;56.10
65231;DHT22;51813;40.666;16.602;2023-05-06T02:29:13;18.60;55.90
65231;DHT22;51813;40.666;16.602;2023-05-06T02:31:39;18.60;55.90
65231;DHT22;51813;40.666;16.602;2023-05-06T02:34:04;18.60;56.00
65231;DHT22;51813;40.666;16.602;2023-05-06T02:36:31;18.60;55.90
65231;DHT22;51813;40.666;16.602;2023-05-06T02:38:57;18.60;55.90
65231;DHT22;51813;40.666;16.602;2023-05-06T02:41:23;18.60;55.80
65231;DHT22;51813;40.666;16.602;2023-05-06T02:43:48;18.50;55.00
65231;DHT22;51813;40.666;16.602;2023-05-06T02:46:14;18.50;56.30
65231;DHT22;51813;40.666;16.602;2023-05-06T02:48:40;18.50;56.00
65231;DHT22;51813;40.666;16.602;2023-05-06T02:51:06;18.60;55.60
65231;DHT22;51813;40.666;16.602;2023-05-06T02:53:32;18.50;56.00
65231;DHT22;51813;40.666;16.602;2023-05-06T02:55:57;18.50;55.80
65231;DHT22;51813;40.666;16.602;2023-05-06T02:58:23;18.50;56.00
65231;DHT22;51813;40.666;16.602;2023-05-06T03:00:50;18.50;55.90
65231;DHT22;51813;40.666;16.602;2023-05-06T03:03:16;18.50;56.00
65231;DHT22;51813;40.666;16.602;2023-05-06T03:05:42;18.50;55.50
65231;DHT22;51813;40.666;16.602;2023-05-06T03:08:08;18.50;55.50
65231;DHT22;51813;40.666;16.602;2023-05-06T03:10:33;18.40;56.10
65231;DHT22;51813;40.666;16.602;2023-05-06T03:12:59;18.50;56.00
65231;DHT22;51813;40.666;16.602;2023-05-06T03:15:25;18.50;56.00
65231;DHT22;51813;40.666;16.602;2023-05-06T03:17:51;18.50;55.80
65231;DHT22;51813;40.666;16.602;2023-05-06T03:20:17;18.50;55.80
65231;DHT22;51813;40.666;16.602;2023-05-06T03:22:43;18.50;55.70
65231;DHT22;51813;40.666;16.602;2023-05-06T03:25:08;18.50;55.60
65231;DHT22;51813;40.666;16.602;2023-05-06T03:27:34;18.50;55.60
65231;DHT22;51813;40.666;16.602;2023-05-06T03:30:00;18.50;55.70
65231;DHT22;51813;40.666;16.602;2023-05-06T03:32:26;18.50;55.60
65231;DHT22;51813;40.666;16.602;2023-05-06T03:34:52;18.50;55.60
65231;DHT22;51813;40.666;16.602;2023-05-06T03:37:17;18.50;56.40
65231;DHT22;51813;40.666;16.602;2023-05-06T03:39:43;18.50;55.60
65231;DHT22;51813;40.666;16.602;2023-05-06T03:42:09;18.50;55.10
65231;DHT22;51813;40.666;16.602;2023-05-06T03:44:35;18.50;55.40
65231;DHT22;51813;40.666;16.602;2023-05-06T03:47:00;18.50;55.50
65231;DHT22;51813;40.666;16.602;2023-05-06T03:49:26;18.50;55.50
65231;DHT22;51813;40.666;16.602;2023-05-06T03:51:52;18.50;55.40
65231;DHT22;51813;40.666;16.602;2023-05-06T03:54:17;18.50;55.30
65231;DHT22;51813;40.666;16.602;2023-05-06T03:56:43;18.50;55.30
65231;DHT22;51813;40.666;16.602;2023-05-06T03:59:09;18.50;55.30
65231;DHT22;51813;40.666;16.602;2023-05-06T04:01:35;18.50;55.30
65231;DHT22;51813;40.666;16.602;2023-05-06T04:04:00;18.50;56.00
65231;DHT22;51813;40.666;16.602;2023-05-06T04:06:26;18.50;55.30
65231;DHT22;51813;40.666;16.602;2023-05-06T04:08:52;18.50;55.30
65231;DHT22;51813;40.666;16.602;2023-05-06T04:11:17;18.50;55.40
65231;DHT22;51813;40.666;16.602;2023-05-06T04:13:43;18.50;55.50
65231;DHT22;51813;40.666;16.602;2023-05-06T04:16:09;18.50;55.50
65231;DHT22;51813;40.666;16.602;2023-05-06T04:18:35;18.40;55.30
65231;DHT22;51813;40.666;16.602;2023-05-06T04:21:00;18.50;55.40
65231;DHT22;51813;40.666;16.602;2023-05-06T04:23:26;18.50;55.40
65231;DHT22;51813;40.666;16.602;2023-05-06T04:25:52;18.50;55.40
65231;DHT22;51813;40.666;16.602;2023-05-06T04:28:17;18.50;55.50
65231;DHT22;51813;40.666;16.602;2023-05-06T04:30:44;18.50;55.50
65231;DHT22;51813;40.666;16.602;2023-05-06T04:33:10;18.50;55.60
65231;DHT22;51813;40.666;16.602;2023-05-06T04:35:38;18.40;55.30
65231;DHT22;51813;40.666;16.602;2023-05-06T04:38:03;18.40;55.60
65231;DHT22;51813;40.666;16.602;2023-05-06T04:40:30;18.40;55.60
65231;DHT22;51813;40.666;16.602;2023-05-06T04:42:57;18.50;55.60
65231;DHT22;51813;40.666;16.602;2023-05-06T04:45:23;18.40;55.80
65231;DHT22;51813;40.666;16.602;2023-05-06T04:47:49;18.30;55.80
65231;DHT22;51813;40.666;16.602;2023-05-06T04:50:14;18.40;55.80
65231;DHT22;51813;40.666;16.602;2023-05-06T04:52:40;18.40;55.70
65231;DHT22;51813;40.666;16.602;2023-05-06T04:55:06;18.40;55.70
65231;DHT22;51813;40.666;16.602;2023-05-06T04:57:32;18.40;55.70
65231;DHT22;51813;40.666;16.602;2023-05-06T04:59:57;18.40;55.60
65231;DHT22;51813;40.666;16.602;2023-05-06T05:02:23;18.40;55.60
65231;DHT22;51813;40.666;16.602;2023-05-06T05:04:49;18.40;55.60
65231;DHT22;51813;40.666;16.602;2023-05-06T05:07:14;18.40;55.50
65231;DHT22;51813;40.666;16.602;2023-05-06T05:09:41;18.40;55.60
65231;DHT22;51813;40.666;16.602;2023-05-06T05:12:07;18.40;55.60
65231;DHT22;51813;40.666;16.602;2023-05-06T05:14:32;18.40;55.60
65231;DHT22;51813;40.666;16.602;2023-05-06T05:16:58;18.40;55.70
65231;DHT22;51813;40.666;16.602;2023-05-06T05:19:24;18.40;55.60
65231;DHT22;51813;40.666;16.602;2023-05-06T05:21:49;18.30;55.90
65231;DHT22;51813;40.666;16.602;2023-05-06T05:24:15;18.30;55.80
65231;DHT22;51813;40.666;16.602;2023-05-06T05:26:41;18.40;55.80
65231;DHT22;51813;40.666;16.602;2023-05-06T05:29:07;18.40;55.70
65231;DHT22;51813;40.666;16.602;2023-05-06T05:31:32;18.30;55.70
65231;DHT22;51813;40.666;16.602;2023-05-06T05:33:58;18.30;56.00
65231;DHT22;51813;40.666;16.602;2023-05-06T05:36:24;18.40;55.90
65231;DHT22;51813;40.666;16.602;2023-05-06T05:38:50;18.40;55.80
65231;DHT22;51813;40.666;16.602;2023-05-06T05:41:16;18.40;55.70
65231;DHT22;51813;40.666;16.602;2023-05-06T05:43:42;18.40;55.80
65231;DHT22;51813;40.666;16.602;2023-05-06T05:46:07;18.40;55.90
65231;DHT22;51813;40.666;16.602;2023-05-06T05:48:33;18.40;55.90
65231;DHT22;51813;40.666;16.602;2023-05-06T05:51:02;18.40;55.80
65231;DHT22;51813;40.666;16.602;2023-05-06T05:53:28;18.40;55.90
65231;DHT22;51813;40.666;16.602;2023-05-06T05:55:53;18.40;56.00
65231;DHT22;51813;40.666;16.602;2023-05-06T05:58:19;18.40;56.20
65231;DHT22;51813;40.666;16.602;2023-05-06T06:00:45;18.40;56.10
65231;DHT22;51813;40.666;16.602;2023-05-06T06:03:11;18.40;56.10
65231;DHT22;51813;40.666;16.602;2023-05-06T06:05:36;18.30;56.20
65231;DHT22;51813;40.666;16.602;2023-05-06T06:08:02;18.40;56.00
65231;DHT22;51813;40.666;16.602;2023-05-06T06:10:28;18.40;56.10
65231;DHT22;51813;40.666;16.602;2023-05-06T06:12:54;18.40;56.20
65231;DHT22;51813;40.666;16.602;2023-05-06T06:15:20;18.40;56.20
65231;DHT22;51813;40.666;16.602;2023-05-06T06:17:46;18.50;56.40
65231;DHT22;51813;40.666;16.602;2023-05-06T06:20:12;18.50;56.00
65231;DHT22;51813;40.666;16.602;2023-05-06T06:22:38;18.50;56.00
65231;DHT22;51813;40.666;16.602;2023-05-06T06:25:03;18.40;56.00
65231;DHT22;51813;40.666;16.602;2023-05-06T06:27:32;18.40;56.00
65231;DHT22;51813;40.666;16.602;2023-05-06T06:29:58;18.50;55.70
65231;DHT22;51813;40.666;16.602;2023-05-06T06:32:24;18.50;55.50
65231;DHT22;51813;40.666;16.602;2023-05-06T06:34:49;18.50;55.60
65231;DHT22;51813;40.666;16.602;2023-05-06T06:37:15;18.40;54.60
65231;DHT22;51813;40.666;16.602;2023-05-06T06:39:41;18.30;54.70
65231;DHT22;51813;40.666;16.602;2023-05-06T06:42:06;18.30;54.90
65231;DHT22;51813;40.666;16.602;2023-05-06T06:44:33;18.20;55.50
65231;DHT22;51813;40.666;16.602;2023-05-06T06:46:58;18.20;54.90
65231;DHT22;51813;40.666;16.602;2023-05-06T06:49:25;18.20;55.70
65231;DHT22;51813;40.666;16.602;2023-05-06T06:51:51;18.30;55.50
65231;DHT22;51813;40.666;16.602;2023-05-06T06:54:17;18.40;55.30
65231;DHT22;51813;40.666;16.602;2023-05-06T06:56:42;18.40;55.40
65231;DHT22;51813;40.666;16.602;2023-05-06T06:59:08;18.40;55.50
65231;DHT22;51813;40.666;16.602;2023-05-06T07:01:34;18.40;55.30
65231;DHT22;51813;40.666;16.602;2023-05-06T07:04:00;18.40;55.20
65231;DHT22;51813;40.666;16.602;2023-05-06T07:06:25;18.40;55.50
65231;DHT22;51813;40.666;16.602;2023-05-06T07:08:51;18.40;55.30
65231;DHT22;51813;40.666;16.602;2023-05-06T07:11:17;18.30;55.60
65231;DHT22;51813;40.666;16.602;2023-05-06T07:13:42;18.40;55.80
65231;DHT22;51813;40.666;16.602;2023-05-06T07:16:08;18.40;55.80
65231;DHT22;51813;40.666;16.602;2023-05-06T07:18:34;18.40;56.00
65231;DHT22;51813;40.666;16.602;2023-05-06T07:20:59;18.40;55.60
65231;DHT22;51813;40.666;16.602;2023-05-06T07:23:25;18.40;55.70
65231;DHT22;51813;40.666;16.602;2023-05-06T07:25:51;18.40;55.70
65231;DHT22;51813;40.666;16.602;2023-05-06T07:28:17;18.50;56.10
65231;DHT22;51813;40.666;16.602;2023-05-06T07:30:42;18.40;55.90
65231;DHT22;51813;40.666;16.602;2023-05-06T07:33:08;18.50;55.70
65231;DHT22;51813;40.666;16.602;2023-05-06T07:35:33;18.40;56.30
65231;DHT22;51813;40.666;16.602;2023-05-06T07:37:59;18.40;56.00
65231;DHT22;51813;40.666;16.602;2023-05-06T07:40:25;18.40;56.10
65231;DHT22;51813;40.666;16.602;2023-05-06T07:42:51;18.40;55.90
65231;DHT22;51813;40.666;16.602;2023-05-06T07:45:16;18.50;56.50
65231;DHT22;51813;40.666;16.602;2023-05-06T07:47:43;18.50;55.80
65231;DHT22;51813;40.666;16.602;2023-05-06T07:50:09;18.50;56.30
65231;DHT22;51813;40.666;16.602;2023-05-06T07:52:35;18.50;56.30
65231;DHT22;51813;40.666;16.602;2023-05-06T07:55:01;18.50;56.40
65231;DHT22;51813;40.666;16.602;2023-05-06T07:57:26;18.50;56.20
65231;DHT22;51813;40.666;16.602;2023-05-06T07:59:52;18.50;56.20
65231;DHT22;51813;40.666;16.602;2023-05-06T08:02:18;18.50;55.70
65231;DHT22;51813;40.666;16.602;2023-05-06T08:04:44;18.50;56.30
65231;DHT22;51813;40.666;16.602;2023-05-06T08:07:11;18.50;56.00
65231;DHT22;51813;40.666;16.602;2023-05-06T08:09:36;18.40;55.90
65231;DHT22;51813;40.666;16.602;2023-05-06T08:12:02;18.40;56.20
65231;DHT22;51813;40.666;16.602;2023-05-06T08:14:28;18.40;56.20
65231;DHT22;51813;40.666;16.602;2023-05-06T08:16:54;18.50;56.10
65231;DHT22;51813;40.666;16.602;2023-05-06T08:19:20;18.50;56.10
65231;DHT22;51813;40.666;16.602;2023-05-06T08:21:46;18.50;56.00
65231;DHT22;51813;40.666;16.602;2023-05-06T08:24:12;18.50;56.10
65231;DHT22;51813;40.666;16.602;2023-05-06T08:26:38;18.50;55.80
65231;DHT22;51813;40.666;16.602;2023-05-06T08:29:04;18.50;56.20
65231;DHT22;51813;40.666;16.602;2023-05-06T08:31:31;18.50;56.10
65231;DHT22;51813;40.666;16.602;2023-05-06T08:33:57;18.50;56.40
65231;DHT22;51813;40.666;16.602;2023-05-06T08:36:22;18.50;56.40
65231;DHT22;51813;40.666;16.602;2023-05-06T08:38:48;18.50;56.20
65231;DHT22;51813;40.666;16.602;2023-05-06T08:41:19;18.50;56.40
65231;DHT22;51813;40.666;16.602;2023-05-06T08:43:48;18.50;56.00
65231;DHT22;51813;40.666;16.602;2023-05-06T08:46:16;18.50;56.20
65231;DHT22;51813;40.666;16.602;2023-05-06T08:48:42;18.50;56.30
65231;DHT22;51813;40.666;16.602;2023-05-06T08:51:08;18.50;55.90
65231;DHT22;51813;40.666;16.602;2023-05-06T08:53:39;18.50;56.40
65231;DHT22;51813;40.666;16.602;2023-05-06T08:56:07;18.60;56.00
65231;DHT22;51813;40.666;16.602;2023-05-06T08:58:33;18.60;54.20
65231;DHT22;51813;40.666;16.602;2023-05-06T09:01:00;18.70;55.00
65231;DHT22;51813;40.666;16.602;2023-05-06T09:03:27;18.70;55.50
65231;DHT22;51813;40.666;16.602;2023-05-06T09:05:52;18.80;54.50
65231;DHT22;51813;40.666;16.602;2023-05-06T09:08:19;18.80;55.30
65231;DHT22;51813;40.666;16.602;2023-05-06T09:10:45;18.80;54.90
65231;DHT22;51813;40.666;16.602;2023-05-06T09:13:12;18.80;54.70
65231;DHT22;51813;40.666;16.602;2023-05-06T09:15:43;18.80;54.30
65231;DHT22;51813;40.666;16.602;2023-05-06T09:18:10;18.80;54.90
65231;DHT22;51813;40.666;16.602;2023-05-06T09:20:40;18.90;53.60
65231;DHT22;51813;40.666;16.602;2023-05-06T09:23:08;18.90;53.90
65231;DHT22;51813;40.666;16.602;2023-05-06T09:25:36;18.90;54.00
65231;DHT22;51813;40.666;16.602;2023-05-06T09:28:09;18.90;53.60
65231;DHT22;51813;40.666;16.602;2023-05-06T09:30:43;18.90;53.20
65231;DHT22;51813;40.666;16.602;2023-05-06T09:33:10;18.90;54.30
65231;DHT22;51813;40.666;16.602;2023-05-06T09:35:41;18.80;54.10
65231;DHT22;51813;40.666;16.602;2023-05-06T09:38:07;18.80;54.60
65231;DHT22;51813;40.666;16.602;2023-05-06T09:40:35;18.80;55.10
65231;DHT22;51813;40.666;16.602;2023-05-06T09:43:01;18.80;54.80
65231;DHT22;51813;40.666;16.602;2023-05-06T09:45:28;18.80;54.80
65231;DHT22;51813;40.666;16.602;2023-05-06T09:47:54;18.80;53.90
65231;DHT22;51813;40.666;16.602;2023-05-06T09:50:21;18.80;54.90
65231;DHT22;51813;40.666;16.602;2023-05-06T09:52:48;18.80;55.20
65231;DHT22;51813;40.666;16.602;2023-05-06T09:55:14;18.80;54.40
65231;DHT22;51813;40.666;16.602;2023-05-06T09:57:43;18.80;55.10
65231;DHT22;51813;40.666;16.602;2023-05-06T10:00:09;18.80;54.90
65231;DHT22;51813;40.666;16.602;2023-05-06T10:02:37;18.90;54.60
65231;DHT22;51813;40.666;16.602;2023-05-06T10:05:04;18.80;54.10
65231;DHT22;51813;40.666;16.602;2023-05-06T10:07:31;18.80;55.00
65231;DHT22;51813;40.666;16.602;2023-05-06T10:10:01;18.90;54.70
65231;DHT22;51813;40.666;16.602;2023-05-06T10:12:28;18.90;52.60
65231;DHT22;51813;40.666;16.602;2023-05-06T10:14:54;19.00;53.70
65231;DHT22;51813;40.666;16.602;2023-05-06T10:17:23;19.00;54.40
65231;DHT22;51813;40.666;16.602;2023-05-06T10:19:53;19.00;54.50
65231;DHT22;51813;40.666;16.602;2023-05-06T10:25:00;19.10;54.20
65231;DHT22;51813;40.666;16.602;2023-05-06T10:27:29;19.00;53.00
65231;DHT22;51813;40.666;16.602;2023-05-06T10:29:58;19.10;51.90
65231;DHT22;51813;40.666;16.602;2023-05-06T10:32:25;19.10;51.20
65231;DHT22;51813;40.666;16.602;2023-05-06T10:34:55;19.10;52.70
65231;DHT22;51813;40.666;16.602;2023-05-06T10:37:23;19.10;53.10
65231;DHT22;51813;40.666;16.602;2023-05-06T10:39:52;19.10;53.10
65231;DHT22;51813;40.666;16.602;2023-05-06T10:42:19;19.10;52.20
65231;DHT22;51813;40.666;16.602;2023-05-06T10:44:59;19.20;53.30
65231;DHT22;51813;40.666;16.602;2023-05-06T10:47:25;19.20;52.00
65231;DHT22;51813;40.666;16.602;2023-05-06T10:50:16;19.20;52.60
65231;DHT22;51813;40.666;16.602;2023-05-06T10:52:43;19.20;50.70
65231;DHT22;51813;40.666;16.602;2023-05-06T10:58:02;19.20;52.00
65231;DHT22;51813;40.666;16.602;2023-05-06T11:00:32;19.20;50.80
65231;DHT22;51813;40.666;16.602;2023-05-06T11:03:04;19.20;51.00
65231;DHT22;51813;40.666;16.602;2023-05-06T11:05:30;19.20;51.00
65231;DHT22;51813;40.666;16.602;2023-05-06T11:08:08;19.20;50.70
65231;DHT22;51813;40.666;16.602;2023-05-06T11:10:35;19.20;50.70
65231;DHT22;51813;40.666;16.602;2023-05-06T11:13:24;19.20;50.60
65231;DHT22;51813;40.666;16.602;2023-05-06T11:15:51;19.20;50.60
65231;DHT22;51813;40.666;16.602;2023-05-06T11:20:49;19.30;50.20
65231;DHT22;51813;40.666;16.602;2023-05-06T11:23:17;19.30;48.60
65231;DHT22;51813;40.666;16.602;2023-05-06T11:25:43;19.30;49.50
65231;DHT22;51813;40.666;16.602;2023-05-06T11:28:14;19.40;50.00
65231;DHT22;51813;40.666;16.602;2023-05-06T11:30:41;19.30;49.90
65231;DHT22;51813;40.666;16.602;2023-05-06T11:33:09;19.30;49.40
65231;DHT22;51813;40.666;16.602;2023-05-06T11:35:38;19.40;48.80
65231;DHT22;51813;40.666;16.602;2023-05-06T11:38:04;19.40;49.20
65231;DHT22;51813;40.666;16.602;2023-05-06T11:40:30;19.40;49.30
65231;DHT22;51813;40.666;16.602;2023-05-06T11:43:12;19.40;48.20
65231;DHT22;51813;40.666;16.602;2023-05-06T11:45:48;19.40;48.70
65231;DHT22;51813;40.666;16.602;2023-05-06T11:48:16;19.40;49.60
65231;DHT22;51813;40.666;16.602;2023-05-06T11:50:45;19.30;50.20
65231;DHT22;51813;40.666;16.602;2023-05-06T11:53:12;19.20;51.30
65231;DHT22;51813;40.666;16.602;2023-05-06T11:55:41;19.20;51.40
65231;DHT22;51813;40.666;16.602;2023-05-06T11:58:15;19.20;51.50
65231;DHT22;51813;40.666;16.602;2023-05-06T12:00:58;19.20;51.80
65231;DHT22;51813;40.666;16.602;2023-05-06T12:03:25;19.10;51.90
65231;DHT22;51813;40.666;16.602;2023-05-06T12:05:52;19.10;52.30
65231;DHT22;51813;40.666;16.602;2023-05-06T12:08:22;19.20;53.10
65231;DHT22;51813;40.666;16.602;2023-05-06T12:10:57;19.20;52.60
65231;DHT22;51813;40.666;16.602;2023-05-06T12:13:23;19.30;51.30
65231;DHT22;51813;40.666;16.602;2023-05-06T12:15:49;19.40;50.20
65231;DHT22;51813;40.666;16.602;2023-05-06T12:18:16;19.60;50.90
65231;DHT22;51813;40.666;16.602;2023-05-06T12:20:41;19.80;49.80
65231;DHT22;51813;40.666;16.602;2023-05-06T12:23:09;20.00;49.80
65231;DHT22;51813;40.666;16.602;2023-05-06T12:25:35;20.20;49.20
65231;DHT22;51813;40.666;16.602;2023-05-06T12:28:15;20.40;49.00
65231;DHT22;51813;40.666;16.602;2023-05-06T12:30:41;20.50;49.30
65231;DHT22;51813;40.666;16.602;2023-05-06T12:33:08;20.70;48.50
65231;DHT22;51813;40.666;16.602;2023-05-06T12:35:34;20.70;47.80
65231;DHT22;51813;40.666;16.602;2023-05-06T12:38:12;20.90;47.90
65231;DHT22;51813;40.666;16.602;2023-05-06T12:40:39;21.00;48.30
65231;DHT22;51813;40.666;16.602;2023-05-06T12:43:05;21.10;47.00
65231;DHT22;51813;40.666;16.602;2023-05-06T12:45:31;21.10;47.00
65231;DHT22;51813;40.666;16.602;2023-05-06T12:47:58;21.20;46.20
65231;DHT22;51813;40.666;16.602;2023-05-06T12:50:34;21.30;46.50
65231;DHT22;51813;40.666;16.602;2023-05-06T12:53:01;21.30;45.40
65231;DHT22;51813;40.666;16.602;2023-05-06T12:55:27;21.40;47.10
65231;DHT22;51813;40.666;16.602;2023-05-06T12:57:54;21.40;47.50
65231;DHT22;51813;40.666;16.602;2023-05-06T13:00:20;21.40;47.10
65231;DHT22;51813;40.666;16.602;2023-05-06T13:02:46;21.50;46.80
65231;DHT22;51813;40.666;16.602;2023-05-06T13:05:12;21.70;45.20
65231;DHT22;51813;40.666;16.602;2023-05-06T13:07:39;21.70;45.60
65231;DHT22;51813;40.666;16.602;2023-05-06T13:10:05;21.80;46.10
65231;DHT22;51813;40.666;16.602;2023-05-06T13:12:31;21.90;45.50
65231;DHT22;51813;40.666;16.602;2023-05-06T13:14:58;21.90;45.60
65231;DHT22;51813;40.666;16.602;2023-05-06T13:17:24;22.00;44.30
65231;DHT22;51813;40.666;16.602;2023-05-06T13:19:51;22.10;43.70
65231;DHT22;51813;40.666;16.602;2023-05-06T13:22:17;22.10;45.20
65231;DHT22;51813;40.666;16.602;2023-05-06T13:24:43;22.20;44.40
65231;DHT22;51813;40.666;16.602;2023-05-06T13:27:08;22.30;44.10
65231;DHT22;51813;40.666;16.602;2023-05-06T13:29:34;22.20;43.60
65231;DHT22;51813;40.666;16.602;2023-05-06T13:32:00;22.30;42.60
65231;DHT22;51813;40.666;16.602;2023-05-06T13:34:26;22.30;43.90
65231;DHT22;51813;40.666;16.602;2023-05-06T13:36:52;22.30;44.20
65231;DHT22;51813;40.666;16.602;2023-05-06T13:39:19;22.40;43.10
65231;DHT22;51813;40.666;16.602;2023-05-06T13:41:46;22.40;43.50
65231;DHT22;51813;40.666;16.602;2023-05-06T13:44:18;22.40;43.30
65231;DHT22;51813;40.666;16.602;2023-05-06T13:46:44;22.40;43.50
65231;DHT22;51813;40.666;16.602;2023-05-06T13:49:10;22.40;42.70
65231;DHT22;51813;40.666;16.602;2023-05-06T13:51:35;22.50;43.20
65231;DHT22;51813;40.666;16.602;2023-05-06T13:54:02;22.60;43.30
65231;DHT22;51813;40.666;16.602;2023-05-06T13:56:28;22.60;43.10
65231;DHT22;51813;40.666;16.602;2023-05-06T13:58:53;22.60;43.40
65231;DHT22;51813;40.666;16.602;2023-05-06T14:01:20;22.60;42.90
65231;DHT22;51813;40.666;16.602;2023-05-06T14:03:46;22.70;43.90
65231;DHT22;51813;40.666;16.602;2023-05-06T14:06:12;22.70;43.30
65231;DHT22;51813;40.666;16.602;2023-05-06T14:08:38;22.70;44.10
65231;DHT22;51813;40.666;16.602;2023-05-06T14:11:03;22.70;43.10
65231;DHT22;51813;40.666;16.602;2023-05-06T14:13:30;22.80;43.50
65231;DHT22;51813;40.666;16.602;2023-05-06T14:15:56;22.70;44.40
65231;DHT22;51813;40.666;16.602;2023-05-06T14:18:22;22.70;43.60
65231;DHT22;51813;40.666;16.602;2023-05-06T14:20:48;22.70;44.30
65231;DHT22;51813;40.666;16.602;2023-05-06T14:23:14;22.80;44.20
65231;DHT22;51813;40.666;16.602;2023-05-06T14:25:39;22.80;44.00
65231;DHT22;51813;40.666;16.602;2023-05-06T14:28:05;22.70;42.20
65231;DHT22;51813;40.666;16.602;2023-05-06T14:30:31;22.80;43.50
65231;DHT22;51813;40.666;16.602;2023-05-06T14:32:59;22.80;43.60
65231;DHT22;51813;40.666;16.602;2023-05-06T14:35:25;22.80;43.50
65231;DHT22;51813;40.666;16.602;2023-05-06T14:37:50;22.80;43.80
65231;DHT22;51813;40.666;16.602;2023-05-06T14:40:16;22.90;43.60
65231;DHT22;51813;40.666;16.602;2023-05-06T14:42:43;22.90;42.90
65231;DHT22;51813;40.666;16.602;2023-05-06T14:45:09;22.90;43.40
65231;DHT22;51813;40.666;16.602;2023-05-06T14:47:35;22.90;43.80
65231;DHT22;51813;40.666;16.602;2023-05-06T14:50:00;22.90;43.40
65231;DHT22;51813;40.666;16.602;2023-05-06T14:52:26;22.90;43.70
65231;DHT22;51813;40.666;16.602;2023-05-06T14:54:52;22.80;43.00
65231;DHT22;51813;40.666;16.602;2023-05-06T14:57:17;22.80;43.70
65231;DHT22;51813;40.666;16.602;2023-05-06T14:59:43;22.80;44.10
65231;DHT22;51813;40.666;16.602;2023-05-06T15:02:10;22.70;44.40
65231;DHT22;51813;40.666;16.602;2023-05-06T15:04:35;22.70;44.50
65231;DHT22;51813;40.666;16.602;2023-05-06T15:07:01;22.60;45.10
65231;DHT22;51813;40.666;16.602;2023-05-06T15:09:27;22.60;45.20
65231;DHT22;51813;40.666;16.602;2023-05-06T15:11:53;22.50;45.60
65231;DHT22;51813;40.666;16.602;2023-05-06T15:14:19;22.50;45.90
65231;DHT22;51813;40.666;16.602;2023-05-06T15:16:45;22.30;46.60
65231;DHT22;51813;40.666;16.602;2023-05-06T15:19:11;22.20;46.90
65231;DHT22;51813;40.666;16.602;2023-05-06T15:21:37;22.20;47.10
65231;DHT22;51813;40.666;16.602;2023-05-06T15:24:02;22.10;47.50
65231;DHT22;51813;40.666;16.602;2023-05-06T15:26:28;22.00;47.80
65231;DHT22;51813;40.666;16.602;2023-05-06T15:28:54;22.00;48.10
65231;DHT22;51813;40.666;16.602;2023-05-06T15:31:20;22.00;48.20